createdAt,value
2019-02-27T17:17:43.375Z,43.72
2019-02-27T17:20:19.812Z,44.81
2019-02-27T17:22:48.098Z,45.92
2019-02-27T17:25:16.399Z,46.26
2019-02-27T17:27:49.912Z,46.92
2019-02-27T17:30:24.417Z,47.23
2019-02-27T17:32:52.821Z,47.86
2019-02-27T17:35:23.606Z,48.79
2019-02-27T17:37:51.106Z,48.73
2019-02-27T17:40:19.375Z,49.37
2019-02-27T17:42:52.983Z,49.80
2019-02-27T17:45:23.262Z,49.67
2019-02-27T17:47:51.535Z,50.37
2019-02-27T17:50:19.801Z,51.08
2019-02-27T17:52:48.970Z,51.35
2019-02-27T17:55:18.975Z,51.72
2019-02-27T17:57:47.338Z,50.08
2019-02-27T18:00:34.159Z,50.09
2019-02-27T18:03:05.015Z,50.02
2019-02-27T18:05:32.467Z,51.23
2019-02-27T18:08:00.730Z,51.98
2019-02-27T18:10:29.024Z,52.05
2019-02-27T18:12:58.879Z,52.94
2019-02-27T18:15:27.288Z,53.21
2019-02-27T18:17:55.588Z,52.90
2019-02-27T18:20:25.584Z,53.17
2019-02-27T18:22:53.879Z,53.53
2019-02-27T18:25:22.228Z,52.87
2019-02-27T18:27:50.491Z,53.12
2019-02-27T18:30:21.147Z,52.51
2019-02-27T18:32:49.751Z,52.03
2019-02-27T18:35:19.007Z,53.60
2019-02-27T18:37:47.299Z,54.18
2019-02-27T18:40:16.805Z,53.69
2019-02-27T18:42:45.090Z,53.35
2019-02-27T18:45:16.176Z,54.21
2019-02-27T18:47:44.603Z,55.12
2019-02-27T18:50:15.398Z,53.95
2019-02-27T18:52:43.642Z,54.39
2019-02-27T18:55:13.771Z,55.02
2019-02-27T18:57:46.056Z,54.74
2019-02-27T19:00:25.552Z,55.31
2019-02-27T19:03:05.685Z,55.61
2019-02-27T19:05:33.977Z,56.08
2019-02-27T19:08:02.262Z,55.71
2019-02-27T19:10:30.544Z,56.76
2019-02-27T19:13:00.032Z,56.02
2019-02-27T19:15:28.950Z,54.05
2019-02-27T19:17:57.237Z,54.08
2019-02-27T19:20:29.076Z,54.08
2019-02-27T19:22:57.337Z,53.99
2019-02-27T19:25:25.695Z,53.96
2019-02-27T19:27:53.949Z,54.69
2019-02-27T19:30:22.223Z,54.30
2019-02-27T19:32:50.484Z,53.13
2019-02-27T19:35:21.659Z,53.06
2019-02-27T19:37:48.815Z,52.97
2019-02-27T19:40:21.304Z,53.19
2019-02-27T19:42:51.411Z,53.81
2019-02-27T19:45:19.688Z,53.23
2019-02-27T19:47:49.663Z,53.63
2019-02-27T19:50:18.101Z,53.14
2019-02-27T19:52:46.387Z,53.14
2019-02-27T19:55:14.665Z,53.73
2019-02-27T19:57:43.588Z,54.07
2019-02-27T20:00:20.937Z,53.19
2019-02-27T20:02:49.236Z,53.59
2019-02-27T20:05:19.138Z,53.42
2019-02-27T20:07:47.563Z,54.32
2019-02-27T20:10:16.984Z,54.43
2019-02-27T20:12:47.795Z,56.48
2019-02-27T20:15:19.513Z,57.21
2019-02-27T20:17:48.069Z,57.71
2019-02-27T20:20:18.193Z,56.97
2019-02-27T20:22:46.456Z,56.94
2019-02-27T20:25:17.970Z,55.86
2019-02-27T20:27:46.331Z,56.06
2019-02-27T20:30:18.087Z,55.61
2019-02-27T20:32:47.091Z,55.77
2019-02-27T20:35:17.303Z,55.24
2019-02-27T20:37:45.350Z,55.79
2019-02-27T20:40:15.472Z,55.91
2019-02-27T20:42:43.872Z,55.34
2019-02-27T20:45:16.372Z,54.85
2019-02-27T20:47:44.673Z,55.29
2019-02-27T20:50:33.997Z,55.27
2019-02-27T20:52:51.686Z,55.28
2019-02-27T20:55:19.963Z,55.13
2019-02-27T20:57:48.238Z,55.90
2019-02-27T21:00:16.932Z,55.12
2019-02-27T21:02:45.205Z,55.40
2019-02-27T21:05:16.705Z,56.03
2019-02-27T21:07:44.987Z,55.40
2019-02-27T21:10:20.857Z,55.69
2019-02-27T21:12:53.978Z,55.98
2019-02-27T21:15:19.149Z,55.84
2019-02-27T21:17:47.406Z,55.73
2019-02-27T21:20:16.682Z,54.83
2019-02-27T21:22:45.039Z,54.35
2019-02-27T21:25:14.936Z,53.95
2019-02-27T21:27:43.933Z,54.28
2019-02-27T21:30:17.730Z,54.51
2019-02-27T21:32:44.505Z,55.56
2019-02-27T21:35:12.836Z,55.63
2019-02-27T21:37:44.620Z,55.48
2019-02-27T21:40:13.385Z,55.23
2019-02-27T21:42:41.645Z,55.87
2019-02-27T21:45:15.588Z,56.39
2019-02-27T21:47:43.853Z,56.17
2019-02-27T21:50:14.941Z,55.83
2019-02-27T21:52:43.201Z,55.51
2019-02-27T21:55:13.763Z,55.47
2019-02-27T21:57:41.620Z,55.89
2019-02-27T22:00:16.168Z,55.25
2019-02-27T22:02:44.436Z,55.50
2019-02-27T22:05:18.490Z,55.63
2019-02-27T22:07:42.722Z,55.46
2019-02-27T22:10:19.678Z,55.58
2019-02-27T22:12:46.215Z,55.33
2019-02-27T22:15:22.887Z,55.49
2019-02-27T22:17:50.620Z,55.24
2019-02-27T22:20:18.910Z,54.90
2019-02-27T22:22:47.183Z,54.41
2019-02-27T22:25:15.441Z,54.55
2019-02-27T22:27:45.881Z,54.21
2019-02-27T22:30:18.559Z,54.09
2019-02-27T22:32:48.151Z,54.72
2019-02-27T22:35:16.833Z,54.93
2019-02-27T22:37:45.089Z,54.76
2019-02-27T22:40:18.636Z,53.73
2019-02-27T22:42:48.436Z,54.22
2019-02-27T22:45:20.372Z,54.82
2019-02-27T22:47:49.600Z,54.63
2019-02-27T22:50:19.102Z,54.83
2019-02-27T22:52:47.392Z,55.31
2019-02-27T22:55:15.658Z,54.41
2019-02-27T22:57:43.928Z,53.91
2019-02-27T23:00:19.121Z,54.74
2019-02-27T23:02:47.375Z,54.50
2019-02-27T23:05:15.661Z,55.10
2019-02-27T23:07:43.920Z,54.62
2019-02-27T23:10:12.202Z,54.47
2019-02-27T23:12:40.511Z,55.44
2019-02-27T23:15:08.768Z,56.16
2019-02-27T23:17:37.038Z,54.97
2019-02-27T23:20:05.871Z,55.22
2019-02-27T23:22:34.158Z,55.80
2019-02-27T23:25:02.434Z,55.18
2019-02-27T23:27:30.724Z,54.81
2019-02-27T23:29:59.105Z,55.02
2019-02-27T23:32:28.630Z,54.54
2019-02-27T23:34:57.408Z,54.74
2019-02-27T23:37:29.390Z,55.12
2019-02-27T23:39:55.668Z,55.11
2019-02-27T23:42:23.953Z,54.97
2019-02-27T23:44:53.305Z,55.23
2019-02-27T23:47:21.567Z,55.48
2019-02-27T23:49:49.836Z,54.87
2019-02-27T23:52:19.212Z,55.23
2019-02-27T23:54:48.087Z,54.81
2019-02-27T23:57:16.343Z,55.03
2019-02-27T23:59:44.624Z,54.60
